Time;durP1;ratioP1;P1;durP2;ratioP2;P2;SDS_P1;SDS_P2;PMS_P1;PMS_P2;Temp;Humidity;BMP_temperature;BMP_pressure;BME280_temperature;BME280_humidity;BME280_pressure;Samples;Min_cycle;Max_cycle;Signal;HPM_P1;HPM_P2
2022/12/01 00:00:13;;;;;;;19.98;12.88;;;;;;;15.82;44.73;93614.13;4991188;28;20038;-89
2022/12/01 00:02:38;;;;;;;20.85;13.00;;;;;;;15.83;44.43;93612.13;5007074;28;20604;-88
2022/12/01 00:05:04;;;;;;;19.48;12.45;;;;;;;15.80;44.76;93610.41;4971314;28;20042;-89
2022/12/01 00:07:29;;;;;;;19.42;13.23;;;;;;;15.84;44.49;93616.34;4972529;28;20057;-90
2022/12/01 00:12:42;;;;;;;19.20;12.48;;;;;;;15.82;44.50;93616.09;5006551;28;20502;-87
2022/12/01 00:15:09;;;;;;;19.38;11.73;;;;;;;15.82;44.70;93616.09;4991784;28;20041;-90
2022/12/01 00:17:35;;;;;;;17.05;11.80;;;;;;;15.80;44.70;93615.88;4990730;28;20417;-87
2022/12/01 00:20:00;;;;;;;19.02;12.48;;;;;;;15.80;44.24;93610.41;5002627;28;20044;-87
2022/12/01 00:22:26;;;;;;;19.00;11.77;;;;;;;15.82;44.59;93616.09;4991347;28;20116;-86
2022/12/01 00:24:51;;;;;;;18.65;12.00;;;;;;;15.79;44.48;93612.41;4989817;28;20037;-87
2022/12/01 00:27:17;;;;;;;18.52;11.13;;;;;;;15.83;44.67;93612.88;5003807;28;20042;-88
2022/12/01 00:29:42;;;;;;;17.83;11.88;;;;;;;15.78;44.28;93605.44;4991247;28;20049;-89
2022/12/01 00:32:07;;;;;;;21.65;11.68;;;;;;;15.79;44.09;93603.47;5006293;28;20038;-91
2022/12/01 00:34:33;;;;;;;20.40;11.02;;;;;;;15.78;44.42;93613.63;4966452;28;20050;-90
2022/12/01 00:36:59;;;;;;;20.20;11.30;;;;;;;15.79;44.41;93606.94;4971718;28;20038;-87
2022/12/01 00:39:24;;;;;;;17.38;11.82;;;;;;;15.80;44.44;93599.50;4989629;28;20038;-90
2022/12/01 00:41:50;;;;;;;17.95;11.07;;;;;;;15.79;44.36;93612.41;4990454;28;20496;-88
2022/12/01 00:44:15;;;;;;;17.40;11.52;;;;;;;15.81;44.54;93611.88;5023214;28;20088;-89
2022/12/01 00:46:41;;;;;;;17.95;11.55;;;;;;;15.81;44.54;93607.19;5005492;28;20031;-89
2022/12/01 00:49:08;;;;;;;18.60;11.55;;;;;;;15.80;44.63;93618.59;5005073;28;20061;-88
2022/12/01 00:51:33;;;;;;;17.73;10.93;;;;;;;15.81;44.44;93611.88;4989787;28;20444;-90
2022/12/01 00:53:58;;;;;;;20.15;10.80;;;;;;;15.79;44.73;93614.38;5020139;28;20049;-87
2022/12/01 00:56:24;;;;;;;19.77;11.40;;;;;;;15.76;44.49;93618.81;4992397;28;20042;-91
2022/12/01 00:58:49;;;;;;;18.15;11.77;;;;;;;15.77;44.51;93612.13;4992876;28;20036;-89
2022/12/01 01:01:15;;;;;;;17.58;11.73;;;;;;;15.79;44.48;93614.38;5023407;28;20033;-89
2022/12/01 01:03:40;;;;;;;19.38;10.88;;;;;;;15.79;44.28;93608.91;5009369;28;20037;-90
2022/12/01 01:06:07;;;;;;;16.40;10.68;;;;;;;15.80;44.71;93613.16;4991896;28;20083;-89
2022/12/01 01:08:32;;;;;;;19.58;10.93;;;;;;;15.76;44.65;93602.47;4993185;28;20127;-91
2022/12/01 01:10:58;;;;;;;16.95;10.43;;;;;;;15.75;44.74;93603.69;5008807;28;20053;-88
2022/12/01 01:13:23;;;;;;;17.08;10.05;;;;;;;15.77;44.78;93612.13;4991778;28;20563;-91
2022/12/01 01:15:58;;;;;;;16.85;10.75;;;;;;;15.79;44.79;93606.94;4995331;28;20034;-89
2022/12/01 01:18:24;;;;;;;14.68;9.93;;;;;;;15.79;44.76;93601.50;4982037;28;20125;-89
2022/12/01 01:20:57;;;;;;;15.90;10.05;;;;;;;15.78;44.41;93610.91;5006676;28;20038;-88
2022/12/01 01:23:23;;;;;;;17.05;10.48;;;;;;;15.78;44.36;93613.63;4989914;28;20092;-91
2022/12/01 01:25:48;;;;;;;14.27;9.80;;;;;;;15.75;44.52;93600.97;4990078;28;20050;-87
2022/12/01 01:28:13;;;;;;;15.15;9.82;;;;;;;15.77;44.92;93612.88;5010006;28;20046;-90
2022/12/01 01:30:39;;;;;;;15.45;9.65;;;;;;;15.78;44.49;93610.91;5010267;28;20041;-87
2022/12/01 01:33:05;;;;;;;15.50;9.48;;;;;;;15.79;44.62;93614.38;4995131;28;20087;-89
2022/12/01 01:35:30;;;;;;;16.52;10.40;;;;;;;15.75;44.67;93623.53;5006822;28;20066;-90
2022/12/01 01:37:56;;;;;;;14.75;9.45;;;;;;;15.75;44.27;93614.59;4996888;28;20034;-92
2022/12/01 01:40:21;;;;;;;15.05;9.65;;;;;;;15.75;44.61;93614.59;5004355;28;20053;-90
2022/12/01 01:42:47;;;;;;;14.50;9.82;;;;;;;15.75;44.36;93609.91;5013934;28;20052;-89
2022/12/01 01:45:24;;;;;;;15.82;9.18;;;;;;;15.77;44.62;93606.69;5000449;28;20531;-89
2022/12/01 01:47:50;;;;;;;15.32;10.45;;;;;;;15.75;44.78;93603.69;5013490;28;20048;-89
2022/12/01 01:50:17;;;;;;;12.55;8.90;;;;;;;15.74;44.65;93602.94;5004879;28;20264;-88
2022/12/01 01:52:45;;;;;;;14.43;9.20;;;;;;;15.73;44.34;93601.47;4997037;28;20404;-89
2022/12/01 01:55:11;;;;;;;17.10;9.45;;;;;;;15.76;44.71;93597.00;4996087;28;20095;-91
2022/12/01 01:57:37;;;;;;;15.82;8.90;;;;;;;15.75;44.41;93587.34;5013426;28;20117;-89
2022/12/01 02:00:07;;;;;;;15.30;9.63;;;;;;;15.73;44.71;93596.00;5013896;28;20042;-89
2022/12/01 02:02:39;;;;;;;19.10;9.35;;;;;;;15.74;44.74;93588.56;5011980;28;20044;-89
2022/12/01 02:05:09;;;;;;;16.45;9.02;;;;;;;15.74;44.28;93596.75;5013179;28;20041;-89
2022/12/01 02:07:35;;;;;;;15.98;9.68;;;;;;;15.75;44.31;93598.25;5013967;28;20056;-88
2022/12/01 02:10:00;;;;;;;17.15;9.30;;;;;;;15.74;44.53;93602.94;5013163;28;20029;-91
2022/12/01 02:12:32;;;;;;;13.45;9.38;;;;;;;15.75;44.38;93598.25;5012483;28;20190;-91
2022/12/01 02:15:15;;;;;;;13.05;9.20;;;;;;;15.76;44.49;93605.19;5030423;28;20037;-91
2022/12/01 02:17:50;;;;;;;14.77;10.02;;;;;;;15.71;44.29;93595.75;5029169;28;20124;-88
2022/12/01 02:20:18;;;;;;;12.27;8.65;;;;;;;15.72;44.60;93599.97;5002373;28;20030;-91
2022/12/01 02:23:41;;;;;;;14.02;9.00;;;;;;;15.75;44.71;93598.25;5030229;28;20311;-90
2022/12/01 02:26:21;;;;;;;14.77;9.10;;;;;;;15.73;44.61;93600.72;4967341;28;20588;-86
2022/12/01 02:28:52;;;;;;;11.80;8.18;;;;;;;15.72;44.38;93599.22;4961731;28;20174;-87
2022/12/01 02:31:20;;;;;;;11.90;7.82;;;;;;;15.71;44.52;93595.00;4967933;28;20082;-92
2022/12/01 02:33:52;;;;;;;12.57;7.88;;;;;;;15.70;44.61;93588.81;4969436;28;20046;-87
2022/12/01 02:36:36;;;;;;;13.77;9.48;;;;;;;15.72;44.75;93589.06;4967505;28;20061;-91
2022/12/01 02:39:07;;;;;;;12.25;7.55;;;;;;;15.74;44.42;93594.78;4952370;28;20069;-86
2022/12/01 02:41:36;;;;;;;14.15;8.95;;;;;;;15.74;44.38;93594.03;4932610;28;20644;-90
2022/12/01 02:44:14;;;;;;;14.80;8.48;;;;;;;15.70;44.62;93591.53;4972424;28;20498;-90
2022/12/01 02:46:51;;;;;;;12.93;7.95;;;;;;;15.71;44.50;93590.31;4971398;28;20121;-89
2022/12/01 02:49:19;;;;;;;13.95;8.57;;;;;;;15.71;44.32;93595.75;4955562;28;20069;-91
2022/12/01 02:51:45;;;;;;;13.10;7.53;;;;;;;15.72;44.93;93585.59;4955252;28;20053;-90
2022/12/01 02:54:11;;;;;;;12.95;8.25;;;;;;;15.68;44.74;93583.09;4954822;28;20042;-88
2022/12/01 02:56:37;;;;;;;13.50;8.55;;;;;;;15.70;44.97;93588.06;4982745;28;20108;-87
2022/12/01 02:59:08;;;;;;;11.05;7.68;;;;;;;15.72;44.39;93585.59;5012484;28;20400;-87
2022/12/01 03:01:51;;;;;;;14.10;8.93;;;;;;;15.71;44.50;93586.81;4991545;28;20095;-90
2022/12/01 03:04:38;;;;;;;13.38;8.45;;;;;;;15.72;44.48;93588.31;5008078;28;20038;-90
2022/12/01 03:07:25;;;;;;;14.48;8.57;;;;;;;15.70;44.48;93582.59;5008640;28;20195;-90
2022/12/01 03:10:17;;;;;;;12.18;8.13;;;;;;;15.71;44.70;93575.94;5010692;28;20065;-90
2022/12/01 03:13:09;;;;;;;13.00;8.20;;;;;;;15.71;44.33;93576.66;4989886;28;20038;-88
2022/12/01 03:15:38;;;;;;;11.90;7.95;;;;;;;15.68;44.52;93577.66;4961863;28;20073;-90
2022/12/01 03:18:12;;;;;;;10.60;7.35;;;;;;;15.71;44.77;93575.94;4996834;28;20067;-91
2022/12/01 03:20:46;;;;;;;10.25;7.60;;;;;;;15.70;44.63;93577.16;5028531;28;20041;-89
2022/12/01 03:23:13;;;;;;;13.80;7.43;;;;;;;15.70;44.60;93577.91;4994721;28;20108;-89
2022/12/01 03:25:40;;;;;;;11.75;8.13;;;;;;;15.69;44.58;93576.41;5008339;28;20491;-87
2022/12/01 03:28:05;;;;;;;11.23;7.57;;;;;;;15.71;44.42;93576.66;5010640;28;20041;-90
2022/12/01 03:30:32;;;;;;;11.02;6.85;;;;;;;15.72;44.41;93559.09;4992008;28;20041;-88
2022/12/01 03:33:01;;;;;;;14.00;8.23;;;;;;;15.70;44.48;93561.56;4991565;28;20056;-89
2022/12/01 03:35:30;;;;;;;12.70;8.10;;;;;;;15.70;44.36;93563.53;5011206;28;20060;-90
2022/12/01 03:38:05;;;;;;;10.85;7.60;;;;;;;15.70;44.89;93568.97;4994088;28;20231;-90
2022/12/01 03:40:30;;;;;;;11.85;7.32;;;;;;;15.69;44.70;93567.50;5011073;28;20397;-88
2022/12/01 03:43:00;;;;;;;11.77;7.68;;;;;;;15.71;44.60;93568.50;5011379;28;20041;-89
2022/12/01 03:45:35;;;;;;;13.20;7.97;;;;;;;15.69;44.74;93575.66;5010713;28;20072;-89
2022/12/01 03:48:00;;;;;;;12.02;7.57;;;;;;;15.70;44.47;93574.44;4994392;28;20267;-88
2022/12/01 03:50:50;;;;;;;10.88;7.43;;;;;;;15.70;44.56;93572.47;5010127;28;20081;-90
2022/12/01 03:53:21;;;;;;;10.52;7.00;;;;;;;15.69;44.48;93575.66;4994748;28;20037;-90
2022/12/01 03:55:50;;;;;;;13.15;7.43;;;;;;;15.68;44.44;93572.19;4978764;28;20123;-86
2022/12/01 03:58:18;;;;;;;10.88;7.55;;;;;;;15.66;44.99;93573.91;5010909;28;20519;-92
2022/12/01 04:00:48;;;;;;;12.68;7.75;;;;;;;15.68;44.81;93576.91;5010894;28;20030;-88
2022/12/01 04:03:17;;;;;;;10.73;6.78;;;;;;;15.67;44.48;93573.44;5010657;28;20029;-88
2022/12/01 04:05:43;;;;;;;11.52;7.10;;;;;;;15.68;44.65;93582.34;5010728;28;20033;-92
2022/12/01 04:08:08;;;;;;;10.80;6.80;;;;;;;15.68;44.42;93580.38;4993418;28;20048;-89
2022/12/01 04:10:34;;;;;;;13.27;7.68;;;;;;;15.68;44.54;93577.66;5011136;28;20095;-91
2022/12/01 04:12:59;;;;;;;12.18;7.63;;;;;;;15.72;44.70;93577.41;5010932;28;20392;-92
2022/12/01 04:15:25;;;;;;;11.93;7.43;;;;;;;15.66;44.59;93577.38;5009263;28;20037;-88
2022/12/01 04:17:51;;;;;;;10.32;6.72;;;;;;;15.69;44.43;93573.69;4994121;28;20065;-89
2022/12/01 04:20:16;;;;;;;11.07;7.00;;;;;;;15.68;44.49;93571.44;4991211;28;20092;-86
2022/12/01 04:22:42;;;;;;;10.73;7.25;;;;;;;15.68;44.78;93572.19;4991340;28;20034;-92
2022/12/01 04:25:08;;;;;;;12.57;6.88;;;;;;;15.66;44.65;93566.47;4990797;28;20038;-89
2022/12/01 04:27:33;;;;;;;10.90;7.65;;;;;;;15.67;44.30;93570.69;5007229;28;20045;-88
2022/12/01 04:29:58;;;;;;;9.27;6.35;;;;;;;15.64;44.69;93566.22;5008344;28;20033;-90
2022/12/01 04:32:24;;;;;;;9.70;6.57;;;;;;;15.66;44.62;93568.47;4974573;28;20048;-90
2022/12/01 04:34:49;;;;;;;9.02;6.63;;;;;;;15.65;44.40;93565.00;4981854;28;20100;-86
2022/12/01 04:37:16;;;;;;;10.23;7.00;;;;;;;15.65;44.50;93565.00;4981625;28;20049;-89
2022/12/01 04:39:42;;;;;;;10.88;6.97;;;;;;;15.65;44.46;93559.53;5008340;28;20451;-87
2022/12/01 04:42:08;;;;;;;12.63;6.70;;;;;;;15.66;44.54;93557.56;5006327;28;20038;-87
2022/12/01 04:44:33;;;;;;;12.40;6.45;;;;;;;15.71;44.97;93563.03;5026618;28;20037;-87
2022/12/01 04:46:59;;;;;;;25.67;8.60;;;;;;;15.67;44.83;93565.25;5011268;28;20049;-88
2022/12/01 04:49:24;;;;;;;11.25;6.97;;;;;;;15.74;44.53;93555.88;5011424;28;20068;-90
2022/12/01 04:51:49;;;;;;;22.42;7.72;;;;;;;15.74;45.32;93566.78;4986193;28;20041;-88
2022/12/01 04:54:15;;;;;;;9.70;6.20;;;;;;;15.70;44.39;93564.28;4993891;28;20072;-91
2022/12/01 04:56:40;;;;;;;9.95;6.43;;;;;;;15.77;44.60;93574.72;5007609;28;20072;-88
2022/12/01 04:59:06;;;;;;;14.45;7.28;;;;;;;15.78;44.39;93564.56;4988504;28;20128;-91
2022/12/01 05:01:31;;;;;;;9.13;6.28;;;;;;;15.76;44.37;93584.13;5004765;28;20117;-88
2022/12/01 05:03:57;;;;;;;10.82;6.35;;;;;;;15.79;44.02;93573.50;4993540;28;20061;-95
2022/12/01 05:06:25;;;;;;;11.18;6.90;;;;;;;15.76;44.77;93578.69;4996034;28;20046;-89
2022/12/01 05:08:53;;;;;;;13.65;6.40;;;;;;;15.76;44.18;93575.97;5011146;28;20038;-89
2022/12/01 05:11:19;;;;;;;15.60;6.53;;;;;;;15.75;44.42;93579.91;4995446;28;20041;-90
2022/12/01 05:13:46;;;;;;;8.65;6.30;;;;;;;15.74;44.66;93581.16;4991117;28;20045;-93
2022/12/01 05:16:16;;;;;;;11.25;7.47;;;;;;;15.72;44.00;93580.16;4998413;28;20489;-92
2022/12/01 05:18:42;;;;;;;14.15;8.75;;;;;;;15.57;41.00;93576.84;5016031;28;20041;-92
2022/12/01 05:21:08;;;;;;;19.05;9.60;;;;;;;15.51;40.27;93586.94;5009394;28;20573;-90
2022/12/01 05:23:34;;;;;;;21.48;9.88;;;;;;;15.40;39.91;93577.47;4994917;28;20052;-92
2022/12/01 05:26:00;;;;;;;17.48;11.00;;;;;;;15.37;39.71;93572.28;5011828;28;20425;-92
2022/12/01 05:28:26;;;;;;;18.77;10.88;;;;;;;15.45;39.79;93578.75;4969282;28;20045;-90
2022/12/01 05:30:52;;;;;;;21.13;10.82;;;;;;;15.44;40.18;93578.00;4996451;28;20048;-88
2022/12/01 05:33:18;;;;;;;24.58;10.73;;;;;;;15.50;40.97;93577.28;4994694;28;20057;-88
2022/12/01 05:35:43;;;;;;;64.57;47.78;;;;;;;15.50;42.17;93577.28;5014211;28;20518;-87
2022/12/01 05:38:09;;;;;;;19.50;13.18;;;;;;;15.48;42.70;93575.03;5008253;28;20052;-90
2022/12/01 05:40:35;;;;;;;18.92;8.93;;;;;;;15.62;43.58;93570.66;4998324;28;20034;-92
2022/12/01 05:43:00;;;;;;;22.45;12.05;;;;;;;15.70;43.42;93572.47;5011390;28;20057;-94
2022/12/01 05:45:29;;;;;;;14.52;9.05;;;;;;;15.70;43.46;93571.72;5001179;28;20041;-89
2022/12/01 05:47:57;;;;;;;16.05;8.60;;;;;;;15.69;43.06;93568.25;5000019;28;20064;-89
2022/12/01 05:50:32;;;;;;;27.58;14.02;;;;;;;15.70;43.09;93572.47;5013185;28;20432;-90
2022/12/01 05:52:58;;;;;;;20.65;9.63;;;;;;;15.67;43.09;93576.16;4982837;28;20557;-89
2022/12/01 05:55:23;;;;;;;19.65;10.18;;;;;;;15.67;42.68;93580.84;5012533;28;20059;-87
2022/12/01 05:57:49;;;;;;;19.20;10.25;;;;;;;15.67;43.02;93578.88;5010120;28;20440;-86
2022/12/01 06:00:15;;;;;;;20.67;9.95;;;;;;;15.67;43.04;93580.84;4999880;28;20049;-85
2022/12/01 06:02:40;;;;;;;37.97;15.48;;;;;;;15.66;43.20;93582.84;4993032;28;20350;-88
2022/12/01 06:05:06;;;;;;;31.15;13.52;;;;;;;15.65;42.84;93575.16;4994756;28;20373;-88
2022/12/01 06:07:33;;;;;;;43.92;20.85;;;;;;;15.66;42.66;93582.09;5013085;28;20116;-91
2022/12/01 06:09:58;;;;;;;65.68;30.50;;;;;;;15.54;40.87;93583.25;4997292;28;20037;-92
2022/12/01 06:12:24;;;;;;;108.85;39.92;;;;;;;15.58;41.46;93578.34;5012483;28;20981;-90
2022/12/01 06:14:49;;;;;;;118.78;60.53;;;;;;;15.57;40.90;93577.59;5029619;28;20041;-86
2022/12/01 06:17:15;;;;;;;70.35;32.25;;;;;;;15.60;41.64;93589.47;5003054;28;20041;-90
2022/12/01 06:19:42;;;;;;;103.95;43.30;;;;;;;15.60;42.11;93592.22;5024875;28;20037;-88
2022/12/01 06:22:07;;;;;;;85.15;39.33;;;;;;;15.61;42.60;93597.19;5008114;28;20048;-90
2022/12/01 06:24:33;;;;;;;107.63;44.70;;;;;;;15.65;42.48;93599.69;4978027;28;20034;-93
2022/12/01 06:26:58;;;;;;;126.35;58.97;;;;;;;15.70;42.81;93596.97;4999979;28;20047;-88
2022/12/01 06:29:24;;;;;;;141.63;59.85;;;;;;;15.67;42.81;93595.22;5012133;28;20048;-89
2022/12/01 06:31:51;;;;;;;138.30;61.85;;;;;;;15.68;42.54;93602.16;4976703;28;20068;-88
2022/12/01 06:34:17;;;;;;;164.05;64.47;;;;;;;15.72;42.65;93599.22;4995228;28;20049;-88
2022/12/01 06:36:42;;;;;;;144.52;60.95;;;;;;;15.68;42.56;93601.44;4993187;28;20415;-89
2022/12/01 06:39:08;;;;;;;138.45;57.80;;;;;;;15.69;42.93;93606.38;5012082;28;20030;-88
2022/12/01 06:41:35;;;;;;;143.70;63.63;;;;;;;15.67;43.07;93603.41;5012047;28;20116;-88
2022/12/01 06:44:01;;;;;;;135.70;61.20;;;;;;;15.67;42.59;93608.09;5012606;28;20076;-87
2022/12/01 06:46:29;;;;;;;132.20;60.75;;;;;;;15.75;42.51;93609.91;4991497;28;20034;-88
2022/12/01 06:48:55;;;;;;;139.75;62.40;;;;;;;15.78;42.36;93605.44;4992941;28;20034;-90
2022/12/01 06:51:20;;;;;;;133.02;62.90;;;;;;;15.76;42.62;93616.84;5003988;28;20516;-88
2022/12/01 06:53:46;;;;;;;171.38;75.55;;;;;;;15.74;42.79;93610.38;5012596;28;20037;-86
2022/12/01 06:56:11;;;;;;;164.85;73.90;;;;;;;15.71;42.61;93614.06;4991012;28;20042;-91
2022/12/01 06:58:37;;;;;;;155.50;72.68;;;;;;;15.74;42.58;93613.84;4990298;28;20077;-86
2022/12/01 07:01:09;;;;;;;210.63;79.32;;;;;;;15.73;42.58;93620.53;5005525;28;20041;-89
2022/12/01 07:03:35;;;;;;;175.65;78.60;;;;;;;15.69;42.92;93617.28;4993898;28;20042;-88
2022/12/01 07:06:00;;;;;;;171.02;75.40;;;;;;;15.70;42.98;93607.88;4992881;28;20049;-87
2022/12/01 07:08:27;;;;;;;160.32;73.03;;;;;;;15.75;43.03;93611.88;5013062;28;20060;-91
2022/12/01 07:10:59;;;;;;;150.25;69.25;;;;;;;15.80;42.89;93624.03;5004285;28;20042;-89
2022/12/01 07:13:25;;;;;;;137.10;68.32;;;;;;;15.81;42.99;93620.81;4982171;28;20025;-86
2022/12/01 07:15:50;;;;;;;146.60;68.18;;;;;;;15.83;43.20;93615.63;4998366;28;20132;-88
2022/12/01 07:18:16;;;;;;;144.35;66.72;;;;;;;15.81;42.72;93622.78;5008977;28;20571;-83
2022/12/01 07:20:41;;;;;;;118.78;58.35;;;;;;;15.83;42.64;93620.31;5005013;28;20120;-86
2022/12/01 07:23:06;;;;;;;123.63;55.88;;;;;;;15.81;43.13;93625.50;4999694;28;20034;-86
2022/12/01 07:25:32;;;;;;;115.93;57.05;;;;;;;15.83;43.05;93626.50;5010635;28;20471;-86
2022/12/01 07:27:57;;;;;;;119.57;57.65;;;;;;;15.83;43.24;93636.66;5001460;28;20026;-90
2022/12/01 07:30:23;;;;;;;118.93;55.78;;;;;;;15.85;42.93;93637.69;4989860;28;20045;-89
2022/12/01 07:32:48;;;;;;;128.77;65.72;;;;;;;15.85;42.97;93626.78;5000102;28;20034;-88
2022/12/01 07:35:17;;;;;;;136.02;63.63;;;;;;;15.84;42.99;93636.19;4976466;28;20121;-85
2022/12/01 07:37:43;;;;;;;135.48;64.15;;;;;;;15.81;43.14;93634.44;5006314;28;20107;-86
2022/12/01 07:40:10;;;;;;;151.52;66.90;;;;;;;15.82;43.33;93646.09;4993367;28;20041;-88
2022/12/01 07:42:35;;;;;;;134.85;65.13;;;;;;;15.82;43.05;93638.66;4992915;28;20073;-86
2022/12/01 07:45:01;;;;;;;144.55;65.70;;;;;;;15.81;43.14;93645.34;5011467;28;20105;-85
2022/12/01 07:47:26;;;;;;;150.75;71.90;;;;;;;15.81;43.30;93652.78;5010822;28;20282;-86
2022/12/01 07:49:51;;;;;;;171.32;74.95;;;;;;;15.82;43.13;93646.81;4993689;28;20072;-85
2022/12/01 07:52:17;;;;;;;160.50;71.10;;;;;;;15.84;43.03;93651.78;5008286;28;20254;-90
2022/12/01 07:54:42;;;;;;;163.48;73.07;;;;;;;15.87;43.11;93651.56;4989841;28;20042;-88
2022/12/01 07:57:08;;;;;;;156.68;66.85;;;;;;;15.85;43.07;93645.13;5007431;28;20397;-86
2022/12/01 07:59:33;;;;;;;155.48;73.07;;;;;;;15.83;42.98;93644.84;4974626;28;20042;-86
2022/12/01 08:01:59;;;;;;;162.93;76.63;;;;;;;15.81;43.04;93658.97;5008139;28;20112;-87
2022/12/01 08:04:24;;;;;;;156.45;70.53;;;;;;;15.81;42.92;93663.66;5006487;28;20091;-86
2022/12/01 08:06:50;;;;;;;148.18;68.30;;;;;;;15.81;43.02;93661.69;4992122;28;20042;-88
2022/12/01 08:09:15;;;;;;;153.32;64.85;;;;;;;15.81;43.26;93660.94;5006150;28;20037;-86
2022/12/01 08:11:41;;;;;;;145.80;66.88;;;;;;;15.80;43.12;93651.31;4992061;28;20047;-87
2022/12/01 08:14:06;;;;;;;158.25;76.03;;;;;;;15.80;42.95;93667.66;4993535;28;20107;-87
2022/12/01 08:16:33;;;;;;;167.63;81.47;;;;;;;15.80;43.47;93662.94;5002119;28;20095;-86
2022/12/01 08:18:58;;;;;;;219.02;94.15;;;;;;;15.80;43.07;93673.84;5009211;28;20056;-89
2022/12/01 08:21:24;;;;;;;191.50;92.82;;;;;;;15.83;43.04;93674.84;4980576;28;20042;-90
2022/12/01 08:23:53;;;;;;;203.48;97.75;;;;;;;15.83;43.12;93680.28;5013342;28;20040;-87
2022/12/01 08:26:19;;;;;;;209.13;107.18;;;;;;;15.84;43.23;93670.88;5008978;28;20083;-87
2022/12/01 08:28:44;;;;;;;227.52;105.55;;;;;;;15.85;43.11;93670.38;4996314;28;20037;-88
2022/12/01 08:31:12;;;;;;;215.88;103.68;;;;;;;15.85;43.33;93672.38;4986289;28;20054;-85
2022/12/01 08:33:37;;;;;;;242.43;121.05;;;;;;;15.84;43.19;93671.63;4979377;28;20048;-85
2022/12/01 08:36:03;;;;;;;257.52;125.03;;;;;;;15.84;43.61;93681.78;5003918;28;20037;-84
2022/12/01 08:38:29;;;;;;;253.98;130.10;;;;;;;15.86;43.43;93671.13;5023243;28;20057;-85
2022/12/01 08:40:59;;;;;;;227.27;113.78;;;;;;;15.85;43.18;93678.56;4999864;28;20045;-84
2022/12/01 08:43:25;;;;;;;268.17;131.73;;;;;;;15.84;43.06;93673.59;4995653;28;20067;-82
2022/12/01 08:45:50;;;;;;;250.85;128.32;;;;;;;15.86;42.83;93682.78;5013632;28;20054;-86
2022/12/01 08:48:16;;;;;;;251.75;126.82;;;;;;;15.83;42.86;93674.84;5000920;28;20048;-85
2022/12/01 08:50:41;;;;;;;245.95;126.25;;;;;;;15.83;43.11;93678.31;4991545;28;20037;-86
2022/12/01 08:53:07;;;;;;;211.30;108.45;;;;;;;15.83;43.29;93678.31;5002202;28;20034;-83
2022/12/01 08:55:32;;;;;;;226.80;113.78;;;;;;;15.82;43.49;93684.25;5010313;28;20041;-86
2022/12/01 08:57:57;;;;;;;212.20;114.88;;;;;;;15.86;43.24;93688.25;5018362;28;20092;-87
2022/12/01 09:00:23;;;;;;;219.90;107.82;;;;;;;15.83;43.04;93677.56;5007786;28;20496;-85
2022/12/01 09:02:48;;;;;;;221.65;111.18;;;;;;;15.84;42.98;93684.50;4990944;28;20455;-89
2022/12/01 09:05:14;;;;;;;188.40;98.82;;;;;;;15.88;42.82;93685.03;5000075;28;20051;-85
2022/12/01 09:07:41;;;;;;;187.63;95.95;;;;;;;15.91;42.99;93686.78;4954293;28;20471;-87
2022/12/01 09:10:07;;;;;;;185.93;93.15;;;;;;;15.88;43.28;93682.31;4941820;28;20922;-85
2022/12/01 09:12:33;;;;;;;179.45;97.97;;;;;;;15.87;43.37;93684.28;4966639;28;20235;-87
2022/12/01 09:14:58;;;;;;;169.18;94.25;;;;;;;15.87;43.15;93684.28;4962521;28;20146;-89
2022/12/01 09:17:24;;;;;;;158.82;84.68;;;;;;;15.87;43.76;93678.09;4963051;28;20390;-84
2022/12/01 09:19:49;;;;;;;165.77;87.32;;;;;;;15.87;43.55;93673.38;4967615;28;20042;-86
2022/12/01 09:22:15;;;;;;;176.65;87.00;;;;;;;15.84;43.41;93671.63;4967137;28;20152;-94
2022/12/01 09:24:40;;;;;;;172.63;91.00;;;;;;;15.86;43.42;93674.63;4969752;28;20153;-87
2022/12/01 09:27:06;;;;;;;176.63;90.05;;;;;;;15.87;43.31;93672.63;4986166;28;20062;-88
2022/12/01 09:29:31;;;;;;;167.15;90.28;;;;;;;15.87;43.46;93673.38;4958749;28;20097;-86
2022/12/01 09:31:57;;;;;;;158.65;87.10;;;;;;;15.86;43.43;93671.13;4980386;28;20046;-87
2022/12/01 09:34:23;;;;;;;181.05;89.88;;;;;;;15.89;43.23;93670.16;4965807;28;20072;-87
2022/12/01 09:36:48;;;;;;;179.27;91.72;;;;;;;15.86;43.38;93671.13;4957690;28;20046;-87
2022/12/01 09:39:16;;;;;;;186.77;97.68;;;;;;;15.87;43.10;93667.94;4997144;28;20038;-85
2022/12/01 09:41:49;;;;;;;217.82;115.32;;;;;;;15.86;43.58;93660.22;4989370;28;20049;-86
2022/12/01 09:44:36;;;;;;;211.50;110.88;;;;;;;15.87;43.17;93662.47;4988770;28;20042;-88
2022/12/01 09:47:18;;;;;;;204.93;110.55;;;;;;;15.86;43.50;93665.69;5002705;28;20041;-86
2022/12/01 09:49:48;;;;;;;191.50;105.10;;;;;;;15.86;43.61;93668.41;5025948;28;20509;-87
2022/12/01 09:52:14;;;;;;;;;;;;;;;15.91;43.63;93657.53;5001485;28;20507;-88
2022/12/01 09:54:40;;;;;;;194.00;99.53;;;;;;;15.88;43.37;93646.88;5028634;28;19925;-88
2022/12/01 09:57:12;;;;;;;176.80;96.82;;;;;;;15.86;43.74;93646.59;4992960;28;20557;-88
2022/12/01 09:59:40;;;;;;;185.85;100.55;;;;;;;15.87;43.35;93648.84;5007271;28;20048;-87
2022/12/01 10:02:20;;;;;;;189.80;98.28;;;;;;;15.87;43.75;93640.66;4999032;28;20049;-90
2022/12/01 10:04:46;;;;;;;175.23;88.22;;;;;;;15.89;43.63;93642.91;5007734;28;20060;-89
2022/12/01 10:07:29;;;;;;;188.43;99.60;;;;;;;15.90;43.56;93634.25;5011050;28;20452;-92
2022/12/01 10:09:58;;;;;;;207.75;100.22;;;;;;;15.88;43.68;93633.22;4953763;28;20423;-88
2022/12/01 10:12:26;;;;;;;180.13;89.00;;;;;;;15.88;43.80;93633.97;4956392;28;20769;-88
2022/12/01 10:14:55;;;;;;;190.40;95.93;;;;;;;15.89;43.71;93637.47;4959773;28;20050;-89
2022/12/01 10:17:32;;;;;;;189.15;95.60;;;;;;;15.90;43.61;93636.22;4956554;28;20094;-88
2022/12/01 10:20:30;;;;;;;182.02;93.28;;;;;;;15.90;43.29;93647.13;4937571;28;20047;-86
2022/12/01 10:23:23;;;;;;;229.95;101.45;;;;;;;15.86;42.53;93641.16;4952663;28;20046;-90
2022/12/01 10:25:56;;;;;;;165.55;77.80;;;;;;;15.84;42.74;93635.44;4969275;28;20042;-85
2022/12/01 10:28:59;;;;;;;172.07;82.15;;;;;;;15.85;42.85;93640.41;4951624;28;20043;-86
2022/12/01 10:31:43;;;;;;;153.15;77.65;;;;;;;15.83;43.38;93640.16;4967700;28;20059;-87
2022/12/01 10:34:13;;;;;;;201.75;92.40;;;;;;;15.83;44.07;93639.41;4968413;28;20063;-86
2022/12/01 10:36:38;;;;;;;179.05;86.88;;;;;;;15.86;43.61;93630.25;4973020;28;20050;-84
2022/12/01 10:39:05;;;;;;;153.55;82.22;;;;;;;15.81;43.87;93630.97;4948193;28;20063;-85
2022/12/01 10:41:32;;;;;;;225.52;111.75;;;;;;;15.87;44.33;93637.94;4980442;28;20053;-88
2022/12/01 10:43:59;;;;;;;288.55;141.88;;;;;;;15.81;43.55;93630.97;5004643;28;20046;-86
2022/12/01 10:46:30;;;;;;;229.70;122.55;;;;;;;15.80;43.89;93632.22;4992152;28;20048;-85
2022/12/01 10:48:59;;;;;;;214.73;112.10;;;;;;;15.82;44.16;93630.47;4994905;28;20395;-87
2022/12/01 10:51:25;;;;;;;232.77;124.47;;;;;;;15.84;44.41;93632.72;4981572;28;20054;-85
2022/12/01 10:54:06;;;;;;;242.07;121.78;;;;;;;15.83;43.98;93631.22;4967119;28;20048;-85
2022/12/01 10:56:31;;;;;;;247.18;120.88;;;;;;;15.82;44.52;93627.75;4992021;28;20428;-89
2022/12/01 10:58:58;;;;;;;214.73;114.40;;;;;;;15.84;44.74;93622.56;4989850;28;20153;-85
2022/12/01 11:01:25;;;;;;;257.10;127.20;;;;;;;15.84;44.91;93617.09;4988628;28;20049;-89
2022/12/01 11:03:53;;;;;;;258.60;131.05;;;;;;;15.88;44.69;93619.59;4989152;28;20109;-88
2022/12/01 11:06:21;;;;;;;241.02;124.40;;;;;;;15.84;44.58;93617.09;4985568;28;20049;-87
2022/12/01 11:08:54;;;;;;;229.07;123.32;;;;;;;15.88;44.50;93614.16;4992156;28;20053;-87
2022/12/01 11:11:28;;;;;;;246.20;121.72;;;;;;;15.84;44.54;93610.91;4972918;28;20674;-86
2022/12/01 11:13:53;;;;;;;216.80;111.97;;;;;;;15.88;44.58;93601.25;5012239;28;20036;-88
2022/12/01 11:16:38;;;;;;;216.98;107.55;;;;;;;15.86;44.70;93606.47;4990853;28;20046;-88
2022/12/01 11:19:12;;;;;;;200.80;103.05;;;;;;;15.86;44.43;93606.47;4982197;28;20051;-90
2022/12/01 11:21:46;;;;;;;204.40;101.07;;;;;;;15.89;44.36;93602.00;4983171;28;20041;-84
2022/12/01 11:24:41;;;;;;;188.32;105.28;;;;;;;15.86;44.52;93603.00;4992784;28;20058;-90